| time (UTC) | temp C | wind direction | speed KPH | gust KPH | rain 1hr cm | rain 24hr cm | rain mn cm | humidity % | barometer mb |
| 20260905211559 | 20 | 313 | 1.6 | 0.0 | 0.00 | 0.00 | 0.00 | 50 | 1012.1 |
| 20260905210051 | 20 | 313 | 1.6 | 0.0 | 0.00 | 0.00 | 0.00 | 50 | 1012.2 |
| 20260905204537 | 20 | 340 | 1.6 | 0.0 | 0.00 | 0.00 | 0.00 | 50 | 1012.1 |
| 20260905203029 | 20 | 338 | 1.6 | 0.0 | 0.00 | 0.00 | 0.00 | 50 | 1012.1 |
| 20260905201532 | 20 | 344 | 0.0 | 0.0 | 0.00 | 0.00 | 0.00 | 51 | 1012.0 |
| 20260905200022 | 20 | 355 | 1.6 | 0.0 | 0.00 | 0.00 | 0.00 | 53 | 1011.9 |
| 20260905194518 | 20 | 355 | 1.6 | 0.0 | 0.00 | 0.00 | 0.00 | 54 | 1011.9 |
| 20260905193014 | 20 | 12 | 1.6 | 0.0 | 0.00 | 0.00 | 0.00 | 54 | 1011.9 |
| 20260905191510 | 20 | 360 | 4.8 | 0.0 | 0.00 | 0.00 | 0.00 | 55 | 1011.8 |
| 20260905190007 | 21 | 16 | 3.2 | 0.0 | 0.00 | 0.00 | 0.00 | 54 | 1011.7 |
| 20260905184502 | 20 | 27 | 3.2 | 0.0 | 0.00 | 0.00 | 0.00 | 54 | 1011.5 |
| 20260905183059 | 20 | 46 | 3.2 | 0.0 | 0.00 | 0.00 | 0.00 | 54 | 1011.8 |
| 20260905181555 | 21 | 19 | 3.2 | 0.0 | 0.00 | 0.00 | 0.00 | 53 | 1011.8 |
| 20260905180100 | 21 | 24 | 3.2 | 0.0 | 0.00 | 0.00 | 0.00 | 53 | 1011.7 |
| 20260905174553 | 21 | 26 | 3.2 | 0.0 | 0.00 | 0.00 | 0.00 | 53 | 1011.7 |
| 20260905173057 | 20 | 27 | 1.6 | 0.0 | 0.00 | 0.00 | 0.00 | 53 | 1011.7 |
| 20260905171540 | 21 | 310 | 1.6 | 0.0 | 0.00 | 0.00 | 0.00 | 51 | 1011.8 |
| 20260905170035 | 20 | 39 | 3.2 | 0.0 | 0.00 | 0.00 | 0.00 | 51 | 1011.9 |
| 20260905164531 | 20 | 57 | 1.6 | 0.0 | 0.00 | 0.00 | 0.00 | 51 | 1012.0 |
| 20260905163026 | 20 | 346 | 3.2 | 0.0 | 0.00 | 0.00 | 0.00 | 50 | 1012.0 |
| 20260905161522 | 19 | 14 | 3.2 | 0.0 | 0.00 | 0.00 | 0.00 | 50 | 1012.0 |
| 20260905160021 | 19 | 15 | 0.0 | 0.0 | 0.00 | 0.00 | 0.00 | 48 | 1012.0 |
| 20260905154517 | 18 | 15 | 0.0 | 0.0 | 0.00 | 0.00 | 0.00 | 48 | 1012.0 |
| 20260905153012 | 18 | 15 | 1.6 | 0.0 | 0.00 | 0.00 | 0.00 | 46 | 1012.1 |
| 20260905151508 | 18 | 20 | 3.2 | 0.0 | 0.00 | 0.00 | 0.00 | 46 | 1012.3 |
| 20260905150003 | 18 | 355 | 14.5 | 0.0 | 0.00 | 0.00 | 0.00 | 46 | 1012.3 |
| 20260905144601 | -17 | 0.0 | 0.0 | 0.00 | 0.00 | 0.00 | 1012.1 | ||
| 20260905143055 | -17 | 0.0 | 0.0 | 0.00 | 0.00 | 0.00 | 1012.1 | ||
| 20260905141551 | -17 | 0.0 | 0.0 | 0.00 | 0.00 | 0.00 | 1011.9 | ||
| 20260905140050 | -17 | 0.0 | 0.0 | 0.00 | 0.00 | 0.00 | 1011.9 | ||
| 20260905134556 | -17 | 0.0 | 0.0 | 0.00 | 0.00 | 0.00 | 1011.9 | ||
| 20260905133044 | -17 | 0.0 | 0.0 | 0.00 | 0.00 | 0.00 | 1012.2 | ||
| 20260905131536 | -17 | 0.0 | 0.0 | 0.00 | 0.00 | 0.00 | 1012.3 | ||
| 20260905130031 | -17 | 0.0 | 0.0 | 0.00 | 0.00 | 0.00 | 1012.5 | ||
| 20260905124535 | -17 | 0.0 | 0.0 | 0.00 | 0.00 | 0.00 | 1012.7 | ||
| 20260905123022 | -17 | 0.0 | 0.0 | 0.00 | 0.00 | 0.00 | 1012.7 | ||
| 20260905121519 | -17 | 0.0 | 0.0 | 0.00 | 0.00 | 0.00 | 1012.7 | ||
| 20260905120016 | -17 | 0.0 | 0.0 | 0.00 | 0.00 | 0.00 | 1012.2 | ||
| 20260905114511 | -17 | 0.0 | 0.0 | 0.00 | 0.00 | 0.00 | 1012.1 | ||
| 20260905113007 | -17 | 0.0 | 0.0 | 0.00 | 0.00 | 0.00 | 1012.1 | ||
| 20260905111506 | -17 | 0.0 | 0.0 | 0.00 | 0.00 | 0.00 | 1012.0 | ||
| 20260905110111 | -17 | 0.0 | 0.0 | 0.00 | 0.00 | 0.00 | 1011.9 | ||
| 20260905104556 | 13 | 325 | 0.0 | 0.0 | 0.00 | 0.00 | 0.00 | 100 | 1011.8 |
| 20260905103052 | 13 | 325 | 0.0 | 0.0 | 0.00 | 0.00 | 0.00 | 100 | 1011.6 |
| 20260905101601 | 13 | 325 | 0.0 | 0.0 | 0.00 | 0.00 | 0.00 | 100 | 1011.4 |
| 20260905100043 | 13 | 325 | 0.0 | 0.0 | 0.00 | 0.00 | 0.00 | 100 | 1011.4 |
| 20260905094539 | 13 | 325 | 0.0 | 0.0 | 0.00 | 0.00 | 0.00 | 100 | 1011.4 |
| 20260905093035 | 13 | 325 | 0.0 | 0.0 | 0.00 | 0.00 | 0.00 | 100 | 1011.4 |
| 20260905091530 | 13 | 325 | 0.0 | 0.0 | 0.00 | 0.00 | 0.00 | 100 | 1011.4 |
| 20260905090031 | 13 | 325 | 0.0 | 0.0 | 0.00 | 0.00 | 0.00 | 100 | 1011.4 |
| 20260905084523 | 13 | 325 | 0.0 | 0.0 | 0.00 | 0.00 | 0.00 | 100 | 1011.4 |
| 20260905083021 | 13 | 325 | 0.0 | 0.0 | 0.00 | 0.00 | 0.00 | 100 | 1011.5 |
| 20260905081515 | 13 | 325 | 0.0 | 0.0 | 0.00 | 0.00 | 0.00 | 100 | 1011.6 |
| 20260905080014 | 13 | 325 | 0.0 | 0.0 | 0.00 | 0.00 | 0.00 | 100 | 1011.6 |
| 20260905074513 | 12 | 325 | 0.0 | 0.0 | 0.00 | 0.00 | 0.00 | 100 | 1011.7 |
| 20260905073005 | 12 | 325 | 0.0 | 0.0 | 0.00 | 0.00 | 0.00 | 100 | 1011.7 |
| 20260905071503 | 12 | 325 | 0.0 | 0.0 | 0.00 | 0.00 | 0.00 | 100 | 1011.8 |
| 20260905070111 | 12 | 325 | 0.0 | 0.0 | 0.00 | 0.00 | 0.00 | 100 | 1011.9 |
| 20260905064552 | 12 | 325 | 0.0 | 0.0 | 0.00 | 0.00 | 0.00 | 100 | 1012.0 |
| 20260905063056 | 12 | 325 | 0.0 | 0.0 | 0.00 | 0.00 | 0.00 | 100 | 1012.1 |
| 20260905061544 | 12 | 325 | 0.0 | 0.0 | 0.00 | 0.00 | 0.00 | 100 | 1012.1 |
| 20260905060040 | 12 | 325 | 0.0 | 0.0 | 0.00 | 0.00 | 0.00 | 100 | 1012.2 |
| 20260905054547 | 12 | 325 | 0.0 | 0.0 | 0.00 | 0.00 | 0.00 | 100 | 1012.3 |
| 20260905053032 | 12 | 325 | 0.0 | 0.0 | 0.00 | 0.00 | 0.00 | 100 | 1012.3 |
| 20260905051527 | 12 | 325 | 0.0 | 0.0 | 0.00 | 0.00 | 0.00 | 100 | 1012.4 |
| 20260905050026 | 12 | 325 | 0.0 | 0.0 | 0.00 | 0.00 | 0.00 | 100 | 1012.6 |
| 20260905044522 | 12 | 325 | 0.0 | 0.0 | 0.00 | 0.00 | 0.00 | 100 | 1012.7 |
| 20260905043021 | 12 | 325 | 0.0 | 0.0 | 0.00 | 0.00 | 0.00 | 100 | 1012.7 |
| 20260905041513 | 12 | 325 | 0.0 | 0.0 | 0.00 | 0.00 | 0.00 | 100 | 1012.7 |
| 20260905040013 | 12 | 325 | 0.0 | 0.0 | 0.00 | 0.00 | 0.00 | 100 | 1012.6 |
| 20260905034506 | 12 | 325 | 0.0 | 0.0 | 0.00 | 0.00 | 0.03 | 100 | 1012.6 |
| 20260905033002 | 13 | 325 | 0.0 | 0.0 | 0.00 | 0.00 | 0.03 | 100 | 1012.7 |
| 20260905031605 | 13 | 325 | 0.0 | 0.0 | 0.00 | 0.00 | 0.03 | 100 | 1012.5 |
| 20260905030101 | 13 | 325 | 0.0 | 0.0 | 0.00 | 0.00 | 0.03 | 100 | 1012.4 |
| 20260905024600 | 13 | 325 | 0.0 | 0.0 | 0.00 | 0.00 | 0.03 | 100 | 1012.4 |
| 20260905023048 | 13 | 325 | 0.0 | 0.0 | 0.00 | 0.00 | 0.03 | 100 | 1012.6 |
| 20260905021544 | 13 | 325 | 0.0 | 0.0 | 0.00 | 0.00 | 0.03 | 100 | 1012.4 |
| 20260905020038 | 14 | 325 | 0.0 | 0.0 | 0.00 | 0.00 | 0.03 | 100 | 1012.5 |
| 20260905014534 | 14 | 325 | 0.0 | 0.0 | 0.00 | 0.00 | 0.03 | 100 | 1012.7 |
| 20260905013032 | 15 | 325 | 0.0 | 0.0 | 0.00 | 0.00 | 0.03 | 100 | 1012.6 |
| 20260905011525 | 15 | 325 | 0.0 | 0.0 | 0.00 | 0.00 | 0.03 | 100 | 1012.4 |
| 20260905010026 | 15 | 325 | 0.0 | 0.0 | 0.00 | 0.00 | 0.03 | 1 | 1012.5 |
| 20260905004520 | 16 | 325 | 0.0 | 0.0 | 0.00 | 0.00 | 0.03 | 11 | 1012.7 |
| 20260905003015 | 17 | 325 | 0.0 | 0.0 | 0.00 | 0.00 | 0.03 | 20 | 1012.6 |
| 20260905001511 | 17 | 325 | 0.0 | 0.0 | 0.00 | 0.00 | 0.03 | 31 | 1012.2 |
| 20260905000007 | 18 | 325 | 0.0 | 0.0 | 0.00 | 0.00 | 0.03 | 42 | 1012.1 |
| 20260904234503 | 19 | 325 | 0.0 | 0.0 | 0.00 | 0.00 | 0.03 | 51 | 1011.9 |
| 20260904233059 | 20 | 325 | 0.0 | 0.0 | 0.00 | 0.00 | 0.03 | 56 | 1011.9 |
| 20260904231555 | 20 | 325 | 0.0 | 0.0 | 0.00 | 0.00 | 0.03 | 58 | 1011.7 |
| 20260904230117 | 21 | 324 | 0.0 | 0.0 | 0.00 | 0.00 | 0.03 | 57 | 1011.6 |
| 20260904224548 | 21 | 323 | 0.0 | 0.0 | 0.00 | 0.00 | 0.03 | 57 | 1011.7 |
| 20260904223044 | 21 | 323 | 1.6 | 0.0 | 0.00 | 0.00 | 0.03 | 58 | 1011.5 |
| 20260904221539 | 21 | 328 | 1.6 | 0.0 | 0.00 | 0.00 | 0.03 | 57 | 1011.4 |
| 20260904220035 | 22 | 339 | 1.6 | 0.0 | 0.00 | 0.00 | 0.03 | 56 | 1011.2 |
| 20260904214531 | 22 | 302 | 3.2 | 0.0 | 0.00 | 0.00 | 0.03 | 55 | 1011.2 |
| 20260904213027 | 22 | 296 | 1.6 | 0.0 | 0.00 | 0.00 | 0.03 | 55 | 1011.2 |